Terminal Aerodrome Forecast
Issued by NWS

Home | Current Version | Previous Version | Text Only | Print | Product List | Glossary On
Versions: 1 2 3 4 5 6 7 8 9 10 11 12 13 14 15 16 17 18 19 20 21 22 23 24 25 26 27 28 29 30 31
978
FTUS42 KRAH 092126 AAA
TAFRWI
TAF AMD
KRWI 092126Z 0921/1018 27011G18KT P6SM SCT050 BKN250
      TEMPO 0921/0924 3SM -SHRASN BKN030
     FM100000 27006KT P6SM BKN100
     FM101700 26008G17KT P6SM SCT100=

USA.gov is the U.S. government's official web portal to all federal, state and local government web resources and services.